createdAt,value
2018-09-16T00:00:19.236Z,102111.84
2018-09-16T00:02:48.296Z,102112.34
2018-09-16T00:05:18.258Z,102104.55
2018-09-16T00:07:48.182Z,102101.53
2018-09-16T00:10:18.085Z,102098.33
2018-09-16T00:12:47.210Z,102097.48
2018-09-16T00:15:16.385Z,102090.95
2018-09-16T00:17:45.533Z,102087.52
2018-09-16T00:20:14.564Z,102086.66
2018-09-16T00:22:43.448Z,102086.98
2018-09-16T00:25:13.408Z,102085.00
2018-09-16T00:27:43.313Z,102082.53
2018-09-16T00:30:13.224Z,102080.25
2018-09-16T00:32:45.401Z,102075.33
2018-09-16T00:35:15.625Z,102082.61
2018-09-16T00:37:44.822Z,102073.05
2018-09-16T00:40:13.783Z,102072.43
2018-09-16T00:42:42.720Z,102075.14
2018-09-16T00:45:11.699Z,102065.48
2018-09-16T00:47:40.564Z,102065.25
2018-09-16T00:50:09.767Z,102060.36
2018-09-16T00:52:38.958Z,102063.50
2018-09-16T00:55:07.903Z,102060.70
2018-09-16T00:57:36.923Z,102064.63
2018-09-16T01:00:05.974Z,102050.72
2018-09-16T01:02:34.964Z,102052.46
2018-09-16T01:05:04.155Z,102055.70
2018-09-16T01:07:33.185Z,102048.33
2018-09-16T01:10:04.227Z,102042.51
2018-09-16T01:12:33.183Z,102033.97
2018-09-16T01:15:02.205Z,102036.88
2018-09-16T01:17:31.096Z,102030.95
2018-09-16T01:20:00.044Z,102029.70
2018-09-16T01:22:29.036Z,102030.34
2018-09-16T01:24:58.024Z,102029.00
2018-09-16T01:27:27.555Z,102024.51
2018-09-16T01:29:56.613Z,102025.75
2018-09-16T01:32:26.092Z,102026.39
2018-09-16T01:34:56.269Z,102015.03
2018-09-16T01:37:30.729Z,102018.60
2018-09-16T01:39:59.757Z,102016.00
2018-09-16T01:42:30.387Z,102017.97
2018-09-16T01:45:00.714Z,102012.05
2018-09-16T01:47:30.700Z,102008.39
2018-09-16T01:49:59.608Z,102004.98
2018-09-16T01:52:28.523Z,101993.97
2018-09-16T01:54:57.510Z,102001.33
2018-09-16T01:57:26.869Z,102001.23
2018-09-16T01:59:56.792Z,101998.52
2018-09-16T02:02:26.237Z,101987.10
2018-09-16T02:04:56.572Z,101987.92
2018-09-16T02:07:25.643Z,101988.34
2018-09-16T02:09:54.527Z,101986.88
2018-09-16T02:12:23.412Z,101995.52
2018-09-16T02:14:52.324Z,101991.14
2018-09-16T02:17:21.365Z,101992.06
2018-09-16T02:19:50.353Z,101989.87
2018-09-16T02:22:19.332Z,101989.67
2018-09-16T02:24:48.315Z,101984.16
2018-09-16T02:27:18.243Z,101982.50
2018-09-16T02:29:47.147Z,101984.38
2018-09-16T02:32:16.041Z,101979.30
2018-09-16T02:34:45.055Z,101983.55
2018-09-16T02:37:15.019Z,101977.11
2018-09-16T02:39:43.996Z,101978.55
2018-09-16T02:42:12.971Z,101973.45
2018-09-16T02:44:42.891Z,101969.53
2018-09-16T02:47:11.805Z,101971.19
2018-09-16T02:49:40.689Z,101960.47
2018-09-16T02:52:10.022Z,101964.84
2018-09-16T02:54:38.931Z,101957.67
2018-09-16T02:57:07.899Z,101958.69
2018-09-16T02:59:37.857Z,101957.55
2018-09-16T03:02:06.816Z,101955.56
2018-09-16T03:04:36.017Z,101959.23
2018-09-16T03:07:05.014Z,101953.98
2018-09-16T03:09:33.996Z,101951.50
2018-09-16T03:12:02.953Z,101945.26
2018-09-16T03:14:31.876Z,101949.51
2018-09-16T03:17:02.821Z,101948.05
2018-09-16T03:19:31.756Z,101945.23
2018-09-16T03:22:00.673Z,101952.30
2018-09-16T03:24:29.773Z,101948.46
2018-09-16T03:26:59.279Z,101942.43
2018-09-16T03:29:29.150Z,101947.08
2018-09-16T03:31:58.042Z,101937.84
2018-09-16T03:34:26.980Z,101938.37
2018-09-16T03:36:55.883Z,101944.60
2018-09-16T03:39:24.852Z,101937.74
2018-09-16T03:41:53.760Z,101939.94
2018-09-16T03:44:22.639Z,101942.04
2018-09-16T03:46:51.669Z,101939.22
2018-09-16T03:49:21.502Z,101938.90
2018-09-16T03:51:51.638Z,101939.74
2018-09-16T03:54:20.580Z,101940.56
2018-09-16T03:56:49.490Z,101942.75
2018-09-16T03:59:18.610Z,101937.70
2018-09-16T04:01:47.492Z,101941.97
2018-09-16T04:04:16.372Z,101931.87
2018-09-16T04:06:45.323Z,101941.65
2018-09-16T04:09:14.852Z,101938.23
2018-09-16T04:11:44.355Z,101934.26
2018-09-16T04:14:13.546Z,101932.38
2018-09-16T04:16:42.564Z,101935.31
2018-09-16T04:19:11.606Z,101932.31
2018-09-16T04:21:41.053Z,101933.75
2018-09-16T04:24:10.539Z,101940.00
2018-09-16T04:26:40.008Z,101942.11
2018-09-16T04:29:08.968Z,101940.42
2018-09-16T04:31:39.399Z,101941.97
2018-09-16T04:34:08.972Z,101942.39
2018-09-16T04:36:37.968Z,101945.51
2018-09-16T04:39:09.854Z,101943.98
2018-09-16T04:41:39.309Z,101948.84
2018-09-16T04:44:08.256Z,101944.07
2018-09-16T04:46:37.141Z,101942.52
2018-09-16T04:49:06.044Z,101948.33
2018-09-16T04:51:35.037Z,101941.57
2018-09-16T04:54:03.947Z,101949.89
2018-09-16T04:56:32.834Z,101940.23
2018-09-16T04:59:01.728Z,101941.59
2018-09-16T05:01:30.645Z,101934.30
2018-09-16T05:03:59.674Z,101938.47
2018-09-16T05:06:28.546Z,101939.70
2018-09-16T05:08:57.456Z,101941.05
2018-09-16T05:11:26.413Z,101944.30
2018-09-16T05:13:55.398Z,101938.77
2018-09-16T05:16:25.389Z,101944.91
2018-09-16T05:18:55.340Z,101950.73
2018-09-16T05:21:25.253Z,101947.82
2018-09-16T05:23:54.236Z,101950.73
2018-09-16T05:26:24.172Z,101952.20
2018-09-16T05:28:53.137Z,101953.95
2018-09-16T05:31:22.105Z,101959.98
2018-09-16T05:33:51.033Z,101964.66
2018-09-16T05:36:20.969Z,101966.94
2018-09-16T05:38:49.957Z,101957.70
2018-09-16T05:41:18.942Z,101954.67
2018-09-16T05:43:48.104Z,101948.67
2018-09-16T05:46:17.090Z,101958.73
2018-09-16T05:48:46.035Z,101963.42
2018-09-16T05:51:15.197Z,101967.37
2018-09-16T05:53:45.138Z,101965.47
2018-09-16T05:56:14.252Z,101965.47
2018-09-16T05:58:43.210Z,101959.14
2018-09-16T06:01:13.090Z,101961.34
2018-09-16T06:03:42.028Z,101967.24
2018-09-16T06:06:11.008Z,101961.20
2018-09-16T06:08:39.881Z,101966.89
2018-09-16T06:11:09.049Z,101956.63
2018-09-16T06:13:38.017Z,101955.77
2018-09-16T06:16:07.250Z,101958.96
2018-09-16T06:18:37.408Z,101957.30
2018-09-16T06:21:07.347Z,101954.50
2018-09-16T06:23:36.314Z,101959.06
2018-09-16T06:26:05.509Z,101955.22
2018-09-16T06:28:34.573Z,101954.59
2018-09-16T06:31:03.506Z,101957.90
2018-09-16T06:33:33.436Z,101964.86
2018-09-16T06:36:03.365Z,101956.94
2018-09-16T06:38:32.323Z,101960.15
2018-09-16T06:41:02.230Z,101954.70
2018-09-16T06:43:31.156Z,101954.45
2018-09-16T06:46:00.141Z,101951.65
2018-09-16T06:48:29.116Z,101954.85
2018-09-16T06:50:58.070Z,101958.23
2018-09-16T06:53:27.014Z,101955.63
2018-09-16T06:55:56.949Z,101947.59
2018-09-16T06:58:25.961Z,101953.14
2018-09-16T07:00:55.012Z,101951.55
2018-09-16T07:03:23.842Z,101946.54
2018-09-16T07:05:52.905Z,101949.79
2018-09-16T07:08:22.233Z,101943.33
2018-09-16T07:10:51.186Z,101936.31
2018-09-16T07:13:21.121Z,101937.84
2018-09-16T07:15:50.114Z,101941.00
2018-09-16T07:18:19.568Z,101941.39
2018-09-16T07:20:48.654Z,101941.56
2018-09-16T07:23:17.613Z,101944.75
2018-09-16T07:25:46.731Z,101943.78
2018-09-16T07:28:15.674Z,101942.52
2018-09-16T07:30:45.170Z,101939.03
2018-09-16T07:33:14.214Z,101942.37
2018-09-16T07:35:44.220Z,101945.41
2018-09-16T07:38:13.211Z,101948.51
2018-09-16T07:40:43.096Z,101948.16
2018-09-16T07:43:13.088Z,101951.20
2018-09-16T07:45:42.005Z,101951.20
2018-09-16T07:48:11.045Z,101948.80
2018-09-16T07:50:41.064Z,101954.10
2018-09-16T07:53:10.099Z,101956.66
2018-09-16T07:55:39.303Z,101955.16
2018-09-16T07:58:09.279Z,101953.72
2018-09-16T08:00:39.337Z,101955.61
2018-09-16T08:03:08.262Z,101958.95
2018-09-16T08:05:37.293Z,101959.25
2018-09-16T08:08:06.426Z,101962.39
2018-09-16T08:10:35.314Z,101965.39
2018-09-16T08:13:06.190Z,101965.13
2018-09-16T08:15:35.196Z,101966.41
2018-09-16T08:18:04.579Z,101958.83
2018-09-16T08:20:33.834Z,101950.92
2018-09-16T08:23:03.229Z,101951.53
2018-09-16T08:25:32.530Z,101949.94
2018-09-16T08:28:01.830Z,101952.86
2018-09-16T08:30:31.412Z,101951.95
2018-09-16T08:33:00.855Z,101954.25
2018-09-16T08:35:29.891Z,101945.38
2018-09-16T08:37:59.809Z,101951.70
2018-09-16T08:40:30.140Z,101948.84
2018-09-16T08:42:59.571Z,101947.07
2018-09-16T08:45:29.240Z,101944.91
2018-09-16T08:47:58.730Z,101939.61
2018-09-16T08:50:27.660Z,101937.25
2018-09-16T08:52:57.703Z,101939.09
2018-09-16T08:55:26.610Z,101943.09
2018-09-16T08:57:55.582Z,101944.33
2018-09-16T09:00:25.518Z,101943.78
2018-09-16T09:02:55.443Z,101951.73
2018-09-16T09:05:25.368Z,101941.42
2018-09-16T09:07:54.300Z,101935.98
2018-09-16T09:10:24.328Z,101934.09
2018-09-16T09:12:54.379Z,101936.50
2018-09-16T09:15:24.469Z,101940.42
2018-09-16T09:17:53.417Z,101936.45
2018-09-16T09:20:22.586Z,101937.48
2018-09-16T09:22:52.571Z,101937.78
2018-09-16T09:25:21.595Z,101934.00
2018-09-16T09:27:50.740Z,101930.03
2018-09-16T09:30:21.648Z,101922.67
2018-09-16T09:32:50.597Z,101924.40
2018-09-16T09:35:19.520Z,101923.34
2018-09-16T09:37:48.639Z,101923.67
2018-09-16T09:40:17.963Z,101920.33
2018-09-16T09:42:47.421Z,101918.11
2018-09-16T09:45:17.411Z,101913.39
2018-09-16T09:47:46.344Z,101907.27
2018-09-16T09:50:16.278Z,101905.35
2018-09-16T09:52:45.440Z,101907.92
2018-09-16T09:55:15.441Z,101899.48
2018-09-16T09:57:44.376Z,101896.84
2018-09-16T10:00:17.577Z,101897.56
2018-09-16T10:02:47.489Z,101902.08
2018-09-16T10:05:17.091Z,101893.52
2018-09-16T10:07:46.623Z,101894.11
2018-09-16T10:10:16.069Z,101901.19
2018-09-16T10:12:45.606Z,101897.48
2018-09-16T10:15:16.152Z,101898.36
2018-09-16T10:17:46.405Z,101889.84
2018-09-16T10:20:15.326Z,101888.02
2018-09-16T10:22:44.351Z,101889.94
2018-09-16T10:25:13.290Z,101888.36
2018-09-16T10:27:42.227Z,101893.41
2018-09-16T10:30:12.188Z,101877.37
2018-09-16T10:32:41.111Z,101876.00
2018-09-16T10:35:09.974Z,101875.80
2018-09-16T10:37:39.075Z,101872.52
2018-09-16T10:40:07.986Z,101870.41
2018-09-16T10:42:37.938Z,101867.72
2018-09-16T10:45:07.846Z,101862.06
2018-09-16T10:47:36.968Z,101867.81
2018-09-16T10:50:06.070Z,101860.76
2018-09-16T10:52:35.007Z,101862.47
2018-09-16T10:55:04.952Z,101862.33
2018-09-16T10:57:34.075Z,101851.67
2018-09-16T11:00:03.090Z,101849.49
2018-09-16T11:02:33.171Z,101843.73
2018-09-16T11:05:02.114Z,101843.77
2018-09-16T11:07:30.998Z,101839.06
2018-09-16T11:09:59.994Z,101835.04
2018-09-16T11:12:28.916Z,101839.16
2018-09-16T11:14:57.889Z,101831.07
2018-09-16T11:17:26.800Z,101832.44
2018-09-16T11:19:56.911Z,101823.48
2018-09-16T11:22:26.057Z,101820.91
2018-09-16T11:24:56.038Z,101819.17
2018-09-16T11:27:26.321Z,101815.53
2018-09-16T11:29:55.656Z,101805.41
2018-09-16T11:32:25.972Z,101810.73
2018-09-16T11:34:55.116Z,101804.59
2018-09-16T11:37:25.149Z,101818.48
2018-09-16T11:39:54.369Z,101805.11
2018-09-16T11:42:23.274Z,101807.95
2018-09-16T11:44:52.291Z,101810.20
2018-09-16T11:47:21.319Z,101806.02
2018-09-16T11:49:51.511Z,101797.95
2018-09-16T11:52:21.433Z,101798.24
2018-09-16T11:54:50.417Z,101798.89
2018-09-16T11:57:19.554Z,101785.64
2018-09-16T11:59:48.579Z,101788.38
2018-09-16T12:02:18.506Z,101775.81
2018-09-16T12:04:47.534Z,101778.67
2018-09-16T12:07:16.528Z,101769.45
2018-09-16T12:09:45.628Z,101765.05
2018-09-16T12:12:14.564Z,101761.84
2018-09-16T12:14:43.605Z,101763.84
2018-09-16T12:17:12.579Z,101762.80
2018-09-16T12:19:41.714Z,101764.98
2018-09-16T12:22:10.646Z,101751.52
2018-09-16T12:24:40.782Z,101756.43
2018-09-16T12:27:09.829Z,101756.00
2018-09-16T12:29:38.841Z,101754.59
2018-09-16T12:32:07.841Z,101746.64
2018-09-16T12:34:37.847Z,101742.83
2018-09-16T12:37:07.063Z,101738.92
2018-09-16T12:39:37.014Z,101731.48
2018-09-16T12:42:07.160Z,101726.66
2018-09-16T12:44:36.281Z,101729.14
2018-09-16T12:47:05.247Z,101725.06
2018-09-16T12:49:34.524Z,101726.70
2018-09-16T12:52:03.525Z,101726.42
2018-09-16T12:54:32.739Z,101724.22
2018-09-16T12:57:01.743Z,101718.16
2018-09-16T12:59:30.798Z,101716.28
2018-09-16T13:01:59.778Z,101710.27
2018-09-16T13:04:28.907Z,101705.88
2018-09-16T13:06:58.908Z,101708.88
2018-09-16T13:09:28.815Z,101699.85
2018-09-16T13:11:57.807Z,101703.97
2018-09-16T13:14:26.881Z,101694.37
2018-09-16T13:16:55.932Z,101689.42
2018-09-16T13:19:24.899Z,101688.61
2018-09-16T13:21:55.038Z,101686.09
2018-09-16T13:24:23.978Z,101689.36
2018-09-16T13:26:54.246Z,101686.89
2018-09-16T13:29:23.360Z,101686.29
2018-09-16T13:31:52.371Z,101684.70
2018-09-16T13:34:21.408Z,101674.05
2018-09-16T13:36:50.329Z,101673.83
2018-09-16T13:39:20.448Z,101665.61
2018-09-16T13:41:49.976Z,101665.87
2018-09-16T13:44:19.933Z,101664.78
2018-09-16T13:46:48.989Z,101664.50
2018-09-16T13:49:18.449Z,101657.40
2018-09-16T13:51:47.886Z,101650.80
2018-09-16T13:54:16.833Z,101653.58
2018-09-16T13:56:45.911Z,101653.02
2018-09-16T13:59:14.860Z,101643.42
2018-09-16T14:01:43.844Z,101643.98
2018-09-16T14:04:13.958Z,101635.75
2018-09-16T14:06:43.230Z,101625.89
2018-09-16T14:09:14.562Z,101625.03
2018-09-16T14:11:44.489Z,101617.38
2018-09-16T14:14:13.497Z,101620.11
2018-09-16T14:16:42.442Z,101616.81
2018-09-16T14:19:11.562Z,101617.66
2018-09-16T14:21:41.462Z,101617.94
2018-09-16T14:24:10.402Z,101620.12
2018-09-16T14:26:39.596Z,101616.28
2018-09-16T14:29:08.847Z,101615.43
2018-09-16T14:31:37.984Z,101614.63
2018-09-16T14:34:07.186Z,101613.27
2018-09-16T14:36:37.123Z,101614.37
2018-09-16T14:39:07.001Z,101609.16
2018-09-16T14:41:36.913Z,101605.63
2018-09-16T14:44:06.461Z,101603.69
2018-09-16T14:46:35.425Z,101601.77
2018-09-16T14:49:04.667Z,101597.94
2018-09-16T14:51:33.652Z,101601.52
2018-09-16T14:54:03.697Z,101589.72
2018-09-16T14:56:32.658Z,101592.46
2018-09-16T14:59:01.589Z,101594.38
2018-09-16T15:01:31.570Z,101600.67
2018-09-16T15:04:00.501Z,101586.45
2018-09-16T15:06:30.469Z,101589.44
2018-09-16T15:08:59.492Z,101585.89
2018-09-16T15:11:28.464Z,101582.04
2018-09-16T15:13:57.425Z,101576.84
2018-09-16T15:16:27.685Z,101564.52
2018-09-16T15:18:56.627Z,101569.16
2018-09-16T15:21:25.624Z,101565.60
2018-09-16T15:23:54.699Z,101563.15
2018-09-16T15:26:23.618Z,101561.50
2018-09-16T15:28:53.475Z,101554.95
2018-09-16T15:31:23.381Z,101555.20
2018-09-16T15:33:52.315Z,101559.58
2018-09-16T15:36:22.212Z,101554.11
2018-09-16T15:38:52.187Z,101550.01
2018-09-16T15:41:21.144Z,101544.81
2018-09-16T15:43:51.051Z,101550.02
2018-09-16T15:46:19.953Z,101554.69
2018-09-16T15:48:49.885Z,101551.39
2018-09-16T15:51:18.854Z,101545.10
2018-09-16T15:53:47.843Z,101540.71
2018-09-16T15:56:17.756Z,101535.73
2018-09-16T15:58:47.747Z,101539.84
2018-09-16T16:01:17.726Z,101533.84
2018-09-16T16:03:46.708Z,101536.86
2018-09-16T16:06:16.729Z,101537.66
2018-09-16T16:08:46.023Z,101543.42
2018-09-16T16:11:15.241Z,101541.20
2018-09-16T16:13:45.924Z,101546.97
2018-09-16T16:16:15.761Z,101539.59
2018-09-16T16:18:45.111Z,101530.82
2018-09-16T16:21:14.440Z,101537.11
2018-09-16T16:23:43.668Z,101540.12
2018-09-16T16:26:13.124Z,101538.47
2018-09-16T16:28:42.115Z,101542.05
2018-09-16T16:31:11.999Z,101543.14
2018-09-16T16:33:42.906Z,101541.20
2018-09-16T16:36:11.905Z,101541.77
2018-09-16T16:38:40.783Z,101542.05
2018-09-16T16:41:09.832Z,101542.58
2018-09-16T16:43:38.686Z,101539.59
2018-09-16T16:46:07.672Z,101537.66
2018-09-16T16:48:37.565Z,101544.48
2018-09-16T16:51:06.724Z,101543.11
2018-09-16T16:53:35.672Z,101541.17
2018-09-16T16:56:04.707Z,101545.55
2018-09-16T16:58:33.855Z,101542.52
2018-09-16T17:01:02.929Z,101543.06
2018-09-16T17:03:31.755Z,101543.85
2018-09-16T17:06:00.648Z,101540.81
2018-09-16T17:08:30.634Z,101539.44
2018-09-16T17:11:00.614Z,101537.48
2018-09-16T17:13:29.483Z,101539.91
2018-09-16T17:15:58.501Z,101533.86
2018-09-16T17:18:27.482Z,101540.14
2018-09-16T17:20:56.383Z,101538.17
2018-09-16T17:23:25.361Z,101537.58
2018-09-16T17:25:54.247Z,101542.22
2018-09-16T17:28:23.244Z,101540.02
2018-09-16T17:30:54.154Z,101546.25
2018-09-16T17:33:23.184Z,101546.22
2018-09-16T17:35:54.112Z,101544.83
2018-09-16T17:38:23.055Z,101541.48
2018-09-16T17:40:51.983Z,101543.60
2018-09-16T17:43:20.981Z,101543.55
2018-09-16T17:45:50.305Z,101547.04
2018-09-16T17:48:19.306Z,101543.44
2018-09-16T17:50:48.251Z,101539.59
2018-09-16T17:53:18.202Z,101539.75
2018-09-16T17:55:47.154Z,101547.88
2018-09-16T17:58:17.074Z,101548.11
2018-09-16T18:00:46.946Z,101554.91
2018-09-16T18:03:15.878Z,101561.95
2018-09-16T18:05:44.877Z,101559.99
2018-09-16T18:08:14.817Z,101555.04
2018-09-16T18:10:43.811Z,101557.42
2018-09-16T18:13:12.810Z,101564.69
2018-09-16T18:15:41.775Z,101565.19
2018-09-16T18:18:10.899Z,101567.08
2018-09-16T18:20:39.894Z,101567.31
2018-09-16T18:23:10.045Z,101569.66
2018-09-16T18:25:39.345Z,101563.55
2018-09-16T18:28:08.273Z,101569.29
2018-09-16T18:30:37.296Z,101563.84
2018-09-16T18:33:06.758Z,101565.46
2018-09-16T18:35:36.716Z,101577.80
2018-09-16T18:38:05.728Z,101574.27
2018-09-16T18:40:34.877Z,101573.16
2018-09-16T18:43:04.035Z,101570.51
2018-09-16T18:45:33.040Z,101565.84
2018-09-16T18:48:01.976Z,101559.61
2018-09-16T18:50:31.139Z,101550.27
2018-09-16T18:53:00.049Z,101555.91
2018-09-16T18:55:30.061Z,101555.69
2018-09-16T18:57:59.063Z,101555.94
2018-09-16T19:00:27.993Z,101558.38
2018-09-16T19:02:57.986Z,101557.53
2018-09-16T19:05:26.942Z,101558.89
2018-09-16T19:07:56.884Z,101558.60
2018-09-16T19:10:26.922Z,101556.91
2018-09-16T19:12:55.978Z,101557.17
2018-09-16T19:15:25.397Z,101555.70
2018-09-16T19:17:55.813Z,101551.10
2018-09-16T19:20:26.122Z,101553.39
2018-09-16T19:22:55.732Z,101563.45
2018-09-16T19:25:24.967Z,101563.41
2018-09-16T19:27:54.484Z,101565.80
2018-09-16T19:30:24.766Z,101571.55
2018-09-16T19:32:56.309Z,101568.27
2018-09-16T19:35:25.260Z,101574.20
2018-09-16T19:37:54.288Z,101578.79
2018-09-16T19:40:23.174Z,101579.27
2018-09-16T19:42:52.262Z,101578.12
2018-09-16T19:45:21.190Z,101586.25
2018-09-16T19:47:51.107Z,101590.26
2018-09-16T19:50:20.119Z,101596.98
2018-09-16T19:52:49.131Z,101595.33
2018-09-16T19:55:18.058Z,101599.87
2018-09-16T19:57:47.132Z,101600.05
2018-09-16T20:00:16.930Z,101600.91
2018-09-16T20:02:45.939Z,101604.42
2018-09-16T20:05:14.865Z,101605.23
2018-09-16T20:07:44.795Z,101600.86
2018-09-16T20:10:13.836Z,101606.55
2018-09-16T20:12:42.784Z,101602.73
2018-09-16T20:15:12.711Z,101602.39
2018-09-16T20:17:41.704Z,101605.92
2018-09-16T20:20:10.753Z,101605.88
2018-09-16T20:22:39.674Z,101598.77
2018-09-16T20:25:08.832Z,101601.96
2018-09-16T20:27:37.720Z,101594.91
2018-09-16T20:30:06.718Z,101591.12
2018-09-16T20:32:35.700Z,101589.63
2018-09-16T20:35:04.626Z,101596.14
2018-09-16T20:37:34.617Z,101591.20
2018-09-16T20:40:03.696Z,101588.39
2018-09-16T20:42:32.721Z,101593.15
2018-09-16T20:45:01.646Z,101586.27
2018-09-16T20:47:30.648Z,101584.78
2018-09-16T20:50:00.663Z,101589.41
2018-09-16T20:52:29.586Z,101587.20
2018-09-16T20:54:58.518Z,101591.09
2018-09-16T20:57:27.471Z,101584.35
2018-09-16T20:59:56.403Z,101584.10
2018-09-16T21:02:25.280Z,101588.38
2018-09-16T21:04:55.463Z,101586.63
2018-09-16T21:07:24.450Z,101583.25
2018-09-16T21:09:53.538Z,101585.67
2018-09-16T21:12:22.464Z,101578.87
2018-09-16T21:14:51.499Z,101578.17
2018-09-16T21:17:20.403Z,101579.27
2018-09-16T21:19:49.389Z,101583.81
2018-09-16T21:22:18.287Z,101586.86
2018-09-16T21:24:47.201Z,101592.52
2018-09-16T21:27:16.082Z,101603.27
2018-09-16T21:29:44.973Z,101598.52
2018-09-16T21:32:13.891Z,101598.52
2018-09-16T21:34:42.977Z,101590.84
2018-09-16T21:37:11.959Z,101595.89
2018-09-16T21:39:40.945Z,101590.67
2018-09-16T21:42:09.879Z,101593.92
2018-09-16T21:44:38.768Z,101590.99
2018-09-16T21:47:07.683Z,101591.72
2018-09-16T21:49:36.614Z,101588.83
2018-09-16T21:52:06.759Z,101593.08
2018-09-16T21:54:35.706Z,101581.34
2018-09-16T21:57:04.697Z,101577.77
2018-09-16T21:59:33.707Z,101574.03
2018-09-16T22:02:02.811Z,101582.78
2018-09-16T22:04:31.765Z,101575.28
2018-09-16T22:07:00.704Z,101571.73
2018-09-16T22:09:29.653Z,101578.52
2018-09-16T22:11:59.568Z,101579.19
2018-09-16T22:14:28.626Z,101576.80
2018-09-16T22:16:57.741Z,101575.33
2018-09-16T22:19:26.681Z,101577.64
2018-09-16T22:21:55.616Z,101578.34
2018-09-16T22:24:24.712Z,101580.30
2018-09-16T22:26:53.687Z,101572.73
2018-09-16T22:29:22.666Z,101575.08
2018-09-16T22:31:51.621Z,101576.16
2018-09-16T22:34:21.535Z,101579.75
2018-09-16T22:36:50.458Z,101578.02
2018-09-16T22:39:19.455Z,101573.78
2018-09-16T22:41:48.417Z,101568.95
2018-09-16T22:44:17.413Z,101561.36
2018-09-16T22:46:46.321Z,101563.59
2018-09-16T22:49:15.331Z,101567.67
2018-09-16T22:51:44.268Z,101570.52
2018-09-16T22:54:13.292Z,101565.09
2018-09-16T22:56:42.268Z,101566.69
2018-09-16T22:59:11.355Z,101565.50
2018-09-16T23:01:41.274Z,101558.73
2018-09-16T23:04:10.239Z,101550.27
2018-09-16T23:06:39.164Z,101553.35
2018-09-16T23:09:11.976Z,101548.79
2018-09-16T23:11:43.669Z,101545.91
2018-09-16T23:14:12.594Z,101550.27
2018-09-16T23:16:42.070Z,101555.98
2018-09-16T23:19:10.984Z,101561.27
2018-09-16T23:21:40.038Z,101565.50
2018-09-16T23:24:08.975Z,101568.86
2018-09-16T23:26:38.859Z,101564.42
2018-09-16T23:29:07.774Z,101570.01
2018-09-16T23:31:36.651Z,101570.21
2018-09-16T23:34:05.553Z,101576.41
2018-09-16T23:36:34.455Z,101569.80
2018-09-16T23:39:04.419Z,101570.14
2018-09-16T23:41:34.368Z,101569.63
2018-09-16T23:44:03.341Z,101568.52
2018-09-16T23:46:32.533Z,101568.95
2018-09-16T23:49:02.541Z,101567.09
2018-09-16T23:51:31.501Z,101564.75
2018-09-16T23:54:01.439Z,101560.90
2018-09-16T23:56:30.414Z,101563.61
2018-09-16T23:58:59.420Z,101569.66
